createdAt,value
2023-01-24T00:01:18.276Z,1.82
2023-01-24T00:03:45.941Z,1.56
2023-01-24T00:06:13.538Z,1.62
2023-01-24T00:08:41.242Z,1.57
2023-01-24T00:11:11.441Z,1.59
2023-01-24T00:13:39.771Z,1.60
2023-01-24T00:16:09.508Z,1.67
2023-01-24T00:18:38.617Z,1.76
2023-01-24T00:21:10.288Z,1.70
2023-01-24T00:23:38.213Z,1.84
2023-01-24T00:26:06.066Z,1.77
2023-01-24T00:28:33.848Z,1.60
2023-01-24T00:31:01.822Z,1.66
2023-01-24T00:33:29.514Z,1.77
2023-01-24T00:35:58.416Z,1.59
2023-01-24T00:38:26.173Z,1.48
2023-01-24T00:40:53.867Z,1.61
2023-01-24T00:43:21.437Z,1.51
2023-01-24T00:45:49.013Z,1.63
2023-01-24T00:48:16.835Z,1.59
2023-01-24T00:50:44.424Z,1.56
2023-01-24T00:53:13.614Z,1.50
2023-01-24T00:55:44.706Z,1.58
2023-01-24T00:58:12.902Z,1.47
2023-01-24T01:00:41.249Z,1.62
2023-01-24T01:03:11.824Z,1.62
2023-01-24T01:05:39.478Z,1.54
2023-01-24T01:08:07.231Z,1.45
2023-01-24T01:10:36.250Z,1.56
2023-01-24T01:13:04.571Z,1.52
2023-01-24T01:15:32.905Z,1.54
2023-01-24T01:18:01.017Z,1.66
2023-01-24T01:20:28.848Z,1.78
2023-01-24T01:22:56.878Z,1.63
2023-01-24T01:25:24.586Z,1.63
2023-01-24T01:27:53.663Z,1.61
2023-01-24T01:30:21.314Z,1.67
2023-01-24T01:32:48.876Z,1.58
2023-01-24T01:35:16.784Z,1.70
2023-01-24T01:37:44.433Z,1.69
2023-01-24T01:40:12.816Z,1.69
2023-01-24T01:42:51.006Z,1.61
2023-01-24T01:45:40.055Z,1.66
2023-01-24T01:48:17.178Z,1.70
2023-01-24T01:50:49.512Z,1.59
2023-01-24T01:53:17.767Z,1.66
2023-01-24T01:55:49.723Z,1.62
2023-01-24T01:58:19.516Z,1.66
2023-01-24T02:00:51.630Z,1.53
2023-01-24T02:03:40.251Z,1.70
2023-01-24T02:06:12.691Z,1.67
2023-01-24T02:08:41.994Z,1.60
2023-01-24T02:11:29.072Z,1.78
2023-01-24T02:14:17.102Z,1.57
2023-01-24T02:16:45.053Z,1.55
2023-01-24T02:19:22.537Z,1.45
2023-01-24T02:21:57.349Z,1.71
2023-01-24T02:24:35.006Z,1.63
2023-01-24T02:27:03.971Z,1.56
2023-01-24T02:29:31.649Z,1.45
2023-01-24T02:32:00.997Z,1.52
2023-01-24T02:34:30.139Z,1.47
2023-01-24T02:37:00.732Z,1.41
2023-01-24T02:39:31.829Z,1.58
2023-01-24T02:42:03.256Z,1.66
2023-01-24T02:44:37.395Z,1.61
2023-01-24T02:47:05.554Z,1.57
2023-01-24T02:49:33.233Z,1.55
2023-01-24T02:52:18.369Z,1.44
2023-01-24T02:54:45.981Z,1.63
2023-01-24T02:57:31.110Z,1.56
2023-01-24T03:00:00.121Z,1.52
2023-01-24T03:02:27.822Z,1.52
2023-01-24T03:04:55.686Z,1.69
2023-01-24T03:07:23.265Z,1.68
2023-01-24T03:09:50.833Z,1.50
2023-01-24T03:12:35.888Z,1.62
2023-01-24T03:15:23.070Z,1.61
2023-01-24T03:18:08.506Z,1.57
2023-01-24T03:20:54.017Z,1.44
2023-01-24T03:23:39.114Z,1.46
2023-01-24T03:26:24.244Z,1.49
2023-01-24T03:29:09.829Z,1.46
2023-01-24T03:31:56.708Z,1.44
2023-01-24T03:34:33.709Z,1.60
2023-01-24T03:37:02.742Z,1.52
2023-01-24T03:39:48.181Z,1.68
2023-01-24T03:42:15.849Z,1.49
2023-01-24T03:44:43.619Z,1.79
2023-01-24T03:47:12.585Z,1.71
2023-01-24T03:49:57.883Z,1.61
2023-01-24T03:52:31.619Z,1.70
2023-01-24T03:55:00.620Z,1.62
2023-01-24T03:57:29.187Z,1.52
2023-01-24T03:59:57.084Z,1.59
2023-01-24T04:02:26.104Z,1.69
2023-01-24T04:05:11.531Z,1.43
2023-01-24T04:07:39.067Z,1.60
2023-01-24T04:10:08.268Z,1.62
2023-01-24T04:12:35.852Z,1.56
2023-01-24T04:15:03.507Z,1.39
2023-01-24T04:17:32.409Z,1.41
2023-01-24T04:19:59.967Z,1.31
2023-01-24T04:22:27.596Z,1.36
2023-01-24T04:24:55.151Z,1.31
2023-01-24T04:27:22.770Z,1.46
2023-01-24T04:29:50.369Z,1.35
2023-01-24T04:32:17.957Z,1.46
2023-01-24T04:34:46.859Z,1.29
2023-01-24T04:37:14.474Z,1.42
2023-01-24T04:39:42.227Z,1.44
2023-01-24T04:42:09.819Z,1.39
2023-01-24T04:44:37.451Z,1.55
2023-01-24T04:47:05.304Z,1.63
2023-01-24T04:49:32.988Z,1.70
2023-01-24T04:52:01.878Z,1.70
2023-01-24T04:54:29.490Z,1.51
2023-01-24T04:56:57.177Z,1.54
2023-01-24T04:59:24.842Z,1.45
2023-01-24T05:01:52.419Z,1.44
2023-01-24T05:04:20.228Z,1.56
2023-01-24T05:06:47.868Z,1.74
2023-01-24T05:09:16.787Z,1.55
2023-01-24T05:11:47.154Z,1.56
2023-01-24T05:14:14.747Z,1.45
2023-01-24T05:16:42.338Z,1.36
2023-01-24T05:19:09.931Z,1.43
2023-01-24T05:21:37.506Z,1.52
2023-01-24T05:24:05.984Z,1.41
2023-01-24T05:26:35.011Z,1.48
2023-01-24T05:29:02.760Z,1.47
2023-01-24T05:31:30.569Z,1.49
2023-01-24T05:33:58.318Z,1.35
2023-01-24T05:36:26.272Z,1.51
2023-01-24T05:38:53.851Z,1.56
2023-01-24T05:41:22.224Z,1.54
2023-01-24T05:43:51.735Z,1.33
2023-01-24T05:46:20.987Z,1.29
2023-01-24T05:48:49.769Z,1.44
2023-01-24T05:51:20.606Z,1.39
2023-01-24T05:53:48.920Z,1.41
2023-01-24T05:56:19.326Z,1.59
2023-01-24T05:58:47.904Z,1.44
2023-01-24T06:01:18.700Z,1.50
2023-01-24T06:03:47.894Z,1.56
2023-01-24T06:06:16.914Z,1.50
2023-01-24T06:08:45.385Z,1.54
2023-01-24T06:11:15.064Z,1.42
2023-01-24T06:13:42.982Z,1.34
2023-01-24T06:16:13.901Z,1.45
2023-01-24T06:18:43.512Z,1.47
2023-01-24T06:21:38.602Z,1.39
2023-01-24T06:24:07.176Z,1.42
2023-01-24T06:26:35.527Z,1.57
2023-01-24T06:29:03.899Z,1.37
2023-01-24T06:31:40.290Z,1.39
2023-01-24T06:34:23.128Z,1.41
2023-01-24T06:37:04.874Z,1.61
2023-01-24T06:39:34.929Z,1.49
2023-01-24T06:42:02.963Z,1.46
2023-01-24T06:44:31.122Z,1.42
2023-01-24T06:46:58.957Z,1.30
2023-01-24T06:49:27.924Z,1.57
2023-01-24T06:51:55.525Z,1.63
2023-01-24T06:54:23.131Z,1.44
2023-01-24T06:56:50.665Z,1.47
2023-01-24T06:59:18.264Z,1.51
2023-01-24T07:01:45.883Z,1.49
2023-01-24T07:04:13.514Z,1.45
2023-01-24T07:06:42.683Z,1.37
2023-01-24T07:09:10.365Z,1.45
2023-01-24T07:11:38.732Z,1.52
2023-01-24T07:14:06.367Z,1.53
2023-01-24T07:16:33.913Z,1.38
2023-01-24T07:19:02.023Z,1.58
2023-01-24T07:21:30.044Z,1.53
2023-01-24T07:23:59.703Z,1.81
2023-01-24T07:26:28.115Z,1.86
2023-01-24T07:28:55.688Z,1.88
2023-01-24T07:31:23.407Z,1.86
2023-01-24T07:33:51.138Z,1.56
2023-01-24T07:36:18.916Z,1.65
2023-01-24T07:38:46.491Z,1.50
2023-01-24T07:41:15.470Z,1.46
2023-01-24T07:43:43.031Z,1.37
2023-01-24T07:46:10.681Z,1.63
2023-01-24T07:48:38.296Z,1.60
2023-01-24T07:51:06.359Z,1.27
2023-01-24T07:53:34.355Z,1.61
2023-01-24T07:56:02.971Z,1.52
2023-01-24T07:58:32.854Z,1.77
2023-01-24T08:01:00.747Z,1.76
2023-01-24T08:03:28.345Z,1.54
2023-01-24T08:05:56.256Z,1.56
2023-01-24T08:08:23.878Z,1.57
2023-01-24T08:10:51.550Z,1.48
2023-01-24T08:13:19.150Z,1.60
2023-01-24T08:15:48.023Z,1.61
2023-01-24T08:18:15.600Z,1.67
2023-01-24T08:20:43.233Z,1.94
2023-01-24T08:23:10.911Z,1.72
2023-01-24T08:25:38.855Z,1.81
2023-01-24T08:28:06.518Z,1.77
2023-01-24T08:30:34.042Z,1.62
2023-01-24T08:33:05.102Z,1.75
2023-01-24T08:35:33.974Z,1.70
2023-01-24T08:38:01.845Z,1.72
2023-01-24T08:40:33.148Z,1.62
2023-01-24T08:43:05.627Z,1.70
2023-01-24T08:45:33.247Z,1.52
2023-01-24T08:48:01.246Z,1.59
2023-01-24T08:50:30.188Z,1.59
2023-01-24T08:52:58.847Z,1.60
2023-01-24T08:55:26.739Z,1.81
2023-01-24T08:58:00.314Z,1.85
2023-01-24T09:00:28.071Z,1.75
2023-01-24T09:02:55.694Z,2.04
2023-01-24T09:05:23.611Z,1.88
2023-01-24T09:07:52.736Z,1.89
2023-01-24T09:10:20.381Z,1.79
2023-01-24T09:12:47.996Z,1.77
2023-01-24T09:15:15.594Z,1.84
2023-01-24T09:17:43.234Z,1.92
2023-01-24T09:20:11.983Z,2.08
2023-01-24T09:22:39.670Z,2.24
2023-01-24T09:25:10.668Z,2.03
2023-01-24T09:27:38.597Z,1.85
2023-01-24T09:30:07.422Z,2.10
2023-01-24T09:32:35.096Z,2.07
2023-01-24T09:35:02.842Z,2.34
2023-01-24T09:37:30.493Z,2.46
2023-01-24T09:40:00.525Z,2.16
2023-01-24T09:42:40.055Z,2.26
2023-01-24T09:45:19.599Z,2.38
2023-01-24T09:47:52.212Z,2.25
2023-01-24T09:50:23.119Z,2.16
2023-01-24T09:52:55.080Z,2.11
2023-01-24T09:55:27.501Z,2.28
2023-01-24T09:58:00.898Z,2.38
2023-01-24T10:00:31.248Z,2.02
2023-01-24T10:03:01.498Z,2.39
2023-01-24T10:05:34.876Z,2.14
2023-01-24T10:08:13.494Z,2.24
2023-01-24T10:11:01.572Z,2.26
2023-01-24T10:13:55.459Z,2.38
2023-01-24T10:16:45.776Z,2.58
2023-01-24T10:19:31.599Z,2.50
2023-01-24T10:22:11.572Z,2.53
2023-01-24T10:24:43.423Z,2.64
2023-01-24T10:27:29.209Z,2.48
2023-01-24T10:30:01.971Z,2.57
2023-01-24T10:32:33.547Z,2.64
2023-01-24T10:35:12.794Z,2.64
2023-01-24T10:37:45.566Z,2.73
2023-01-24T10:40:14.729Z,2.59
2023-01-24T10:42:42.406Z,2.63
2023-01-24T10:45:37.262Z,2.50
2023-01-24T10:48:14.149Z,2.56
2023-01-24T10:50:44.092Z,2.65
2023-01-24T10:53:15.771Z,2.43
2023-01-24T10:55:59.579Z,2.55
2023-01-24T10:58:29.186Z,2.41
2023-01-24T11:00:59.999Z,2.65
2023-01-24T11:03:30.374Z,2.67
2023-01-24T11:05:59.760Z,2.65
2023-01-24T11:08:33.771Z,2.59
2023-01-24T11:11:02.492Z,2.63
2023-01-24T11:13:36.861Z,2.48
2023-01-24T11:16:09.192Z,2.36
2023-01-24T11:18:38.103Z,2.63
2023-01-24T11:21:09.162Z,2.65
2023-01-24T11:23:36.799Z,2.47
2023-01-24T11:26:06.747Z,2.70
2023-01-24T11:28:35.781Z,2.74
2023-01-24T11:31:06.213Z,2.77
2023-01-24T11:34:05.793Z,2.86
2023-01-24T11:36:42.683Z,2.48
2023-01-24T11:39:22.770Z,2.88
2023-01-24T11:41:56.169Z,2.68
2023-01-24T11:44:49.765Z,2.63
2023-01-24T11:47:20.242Z,2.84
2023-01-24T11:50:10.300Z,2.98
2023-01-24T11:52:54.636Z,2.96
2023-01-24T11:55:35.790Z,2.82
2023-01-24T11:58:30.899Z,2.88
2023-01-24T12:01:10.491Z,2.90
2023-01-24T12:03:56.667Z,2.70
2023-01-24T12:06:34.757Z,2.70
2023-01-24T12:09:15.361Z,2.78
2023-01-24T12:11:48.751Z,2.89
2023-01-24T12:14:58.844Z,2.63
2023-01-24T12:17:44.852Z,2.65
2023-01-24T12:20:45.811Z,2.65
2023-01-24T12:23:21.398Z,2.63
2023-01-24T12:25:53.071Z,2.78
2023-01-24T12:28:29.603Z,2.80
2023-01-24T12:31:00.285Z,2.65
2023-01-24T12:33:33.812Z,2.77
2023-01-24T12:36:07.758Z,2.57
2023-01-24T12:38:42.851Z,2.59
2023-01-24T12:41:20.406Z,2.59
2023-01-24T12:44:00.283Z,2.40
2023-01-24T12:46:34.946Z,2.62
2023-01-24T12:49:15.406Z,2.49
2023-01-24T12:51:48.940Z,2.64
2023-01-24T12:54:22.393Z,2.64
2023-01-24T12:56:59.282Z,2.55
2023-01-24T12:59:29.164Z,2.55
2023-01-24T13:02:31.994Z,2.46
2023-01-24T13:05:15.426Z,2.38
2023-01-24T13:07:56.576Z,2.30
2023-01-24T13:10:46.101Z,2.42
2023-01-24T13:13:20.955Z,2.50
2023-01-24T13:16:03.723Z,2.66
2023-01-24T13:18:44.917Z,2.38
2023-01-24T13:21:20.274Z,2.38
2023-01-24T13:24:13.253Z,2.61
2023-01-24T13:27:00.640Z,2.38
2023-01-24T13:29:53.025Z,2.46
2023-01-24T13:32:23.327Z,2.37
2023-01-24T13:34:54.068Z,2.35
2023-01-24T13:37:26.088Z,2.23
2023-01-24T13:40:03.241Z,2.51
2023-01-24T13:42:37.579Z,2.56
2023-01-24T13:45:48.000Z,2.28
2023-01-24T13:48:48.080Z,2.60
2023-01-24T13:51:47.224Z,2.79
2023-01-24T13:54:37.282Z,2.53
2023-01-24T13:57:19.470Z,2.60
2023-01-24T14:00:03.607Z,2.76
2023-01-24T14:02:33.924Z,2.72
2023-01-24T14:05:01.529Z,2.48
2023-01-24T14:07:31.008Z,2.29
2023-01-24T14:10:00.354Z,2.55
2023-01-24T14:12:28.794Z,2.39
2023-01-24T14:15:07.454Z,2.46
2023-01-24T14:17:49.991Z,2.38
2023-01-24T14:20:24.935Z,2.28
2023-01-24T14:22:57.029Z,2.53
2023-01-24T14:25:45.026Z,2.38
2023-01-24T14:28:25.118Z,2.43
2023-01-24T14:30:58.652Z,2.20
2023-01-24T14:33:35.776Z,2.41
2023-01-24T14:36:13.009Z,2.56
2023-01-24T14:38:40.659Z,2.16
2023-01-24T14:41:22.671Z,2.43
2023-01-24T14:43:51.407Z,2.24
2023-01-24T14:46:25.383Z,2.32
2023-01-24T14:48:53.329Z,2.57
2023-01-24T14:51:24.984Z,2.34
2023-01-24T14:53:54.149Z,2.69
2023-01-24T14:56:23.261Z,2.73
2023-01-24T14:58:53.826Z,2.69
2023-01-24T15:01:27.564Z,2.51
2023-01-24T15:03:57.462Z,2.69
2023-01-24T15:06:26.437Z,2.56
2023-01-24T15:08:58.913Z,2.69
2023-01-24T15:11:30.914Z,2.35
2023-01-24T15:14:01.821Z,2.59
2023-01-24T15:16:37.060Z,2.30
2023-01-24T15:19:07.478Z,2.46
2023-01-24T15:21:39.540Z,2.65
2023-01-24T15:24:14.922Z,2.60
2023-01-24T15:26:44.498Z,2.56
2023-01-24T15:29:38.809Z,2.47
2023-01-24T15:32:45.449Z,2.23
2023-01-24T15:35:28.260Z,2.17
2023-01-24T15:38:11.548Z,2.39
2023-01-24T15:40:48.187Z,2.24
2023-01-24T15:43:37.209Z,2.27
2023-01-24T15:46:23.865Z,2.22
2023-01-24T15:48:58.456Z,2.34
2023-01-24T15:51:34.844Z,2.17
2023-01-24T15:54:10.162Z,2.05
2023-01-24T15:56:51.139Z,2.17
2023-01-24T15:59:22.881Z,2.12
2023-01-24T16:01:50.579Z,2.30
2023-01-24T16:04:19.830Z,2.10
2023-01-24T16:06:48.886Z,2.21
2023-01-24T16:09:16.828Z,1.99
2023-01-24T16:11:46.876Z,1.87
2023-01-24T16:14:18.110Z,2.25
2023-01-24T16:16:45.819Z,2.25
2023-01-24T16:19:17.148Z,2.32
2023-01-24T16:21:44.803Z,2.16
2023-01-24T16:24:14.262Z,2.25
2023-01-24T16:26:45.587Z,2.19
2023-01-24T16:29:16.014Z,2.22
2023-01-24T16:31:43.716Z,2.29
2023-01-24T16:34:11.356Z,2.20
2023-01-24T16:36:39.211Z,2.31
2023-01-24T16:39:07.992Z,2.21
2023-01-24T16:41:36.943Z,2.46
2023-01-24T16:44:05.122Z,2.31
2023-01-24T16:46:32.802Z,2.28
2023-01-24T16:49:00.986Z,2.34
2023-01-24T16:51:28.939Z,2.58
2023-01-24T16:53:57.022Z,2.42
2023-01-24T16:56:25.007Z,2.49
2023-01-24T16:58:57.237Z,2.31
2023-01-24T17:01:24.839Z,2.16
2023-01-24T17:03:53.196Z,2.12
2023-01-24T17:06:22.064Z,2.44
2023-01-24T17:08:51.875Z,2.23
2023-01-24T17:11:23.102Z,2.29
2023-01-24T17:13:51.465Z,2.20
2023-01-24T17:16:20.576Z,2.29
2023-01-24T17:18:48.134Z,2.49
2023-01-24T17:21:17.301Z,2.38
2023-01-24T17:23:45.193Z,2.61
2023-01-24T17:26:14.571Z,2.27
2023-01-24T17:28:43.907Z,2.35
2023-01-24T17:31:12.694Z,2.39
2023-01-24T17:33:42.401Z,1.99
2023-01-24T17:36:12.787Z,2.07
2023-01-24T17:38:41.202Z,2.32
2023-01-24T17:41:12.800Z,2.53
2023-01-24T17:43:51.814Z,2.66
2023-01-24T17:46:20.338Z,2.88
2023-01-24T17:48:49.381Z,2.82
2023-01-24T17:51:18.720Z,2.98
2023-01-24T17:53:47.641Z,2.65
2023-01-24T17:56:16.700Z,2.77
2023-01-24T17:58:44.644Z,2.90
2023-01-24T18:01:15.375Z,2.70
2023-01-24T18:03:44.372Z,2.75
2023-01-24T18:06:14.355Z,2.71
2023-01-24T18:08:41.957Z,2.47
2023-01-24T18:11:10.361Z,2.82
2023-01-24T18:13:38.594Z,2.97
2023-01-24T18:16:08.776Z,2.82
2023-01-24T18:18:38.273Z,2.61
2023-01-24T18:21:09.540Z,2.20
2023-01-24T18:23:38.934Z,2.07
2023-01-24T18:26:07.777Z,2.11
2023-01-24T18:28:36.059Z,2.41
2023-01-24T18:31:07.891Z,2.15
2023-01-24T18:33:35.609Z,2.38
2023-01-24T18:36:07.974Z,2.55
2023-01-24T18:38:35.599Z,2.19
2023-01-24T18:41:04.868Z,2.17
2023-01-24T18:43:32.432Z,2.14
2023-01-24T18:46:03.090Z,2.12
2023-01-24T18:48:33.535Z,2.41
2023-01-24T18:51:05.845Z,2.63
2023-01-24T18:53:33.464Z,2.60
2023-01-24T18:56:01.510Z,2.65
2023-01-24T18:58:32.127Z,2.75
2023-01-24T19:01:00.239Z,2.83
2023-01-24T19:03:27.854Z,2.61
2023-01-24T19:05:55.470Z,2.61
2023-01-24T19:08:24.104Z,2.37
2023-01-24T19:10:52.450Z,2.20
2023-01-24T19:13:20.163Z,2.65
2023-01-24T19:15:49.097Z,2.79
2023-01-24T19:18:17.817Z,2.54
2023-01-24T19:20:45.341Z,2.72
2023-01-24T19:23:13.024Z,2.56
2023-01-24T19:25:40.643Z,2.89
2023-01-24T19:28:08.288Z,2.37
2023-01-24T19:30:36.068Z,2.63
2023-01-24T19:33:05.285Z,2.65
2023-01-24T19:35:32.937Z,2.20
2023-01-24T19:38:00.760Z,2.18
2023-01-24T19:40:28.496Z,2.20
2023-01-24T19:42:56.281Z,2.01
2023-01-24T19:45:23.872Z,2.04
2023-01-24T19:47:54.436Z,2.10
2023-01-24T19:50:23.520Z,2.25
2023-01-24T19:52:51.833Z,2.21
2023-01-24T19:55:19.515Z,2.16
2023-01-24T19:57:48.003Z,2.34
2023-01-24T20:00:16.450Z,2.43
2023-01-24T20:02:46.301Z,2.03
2023-01-24T20:05:14.208Z,2.20
2023-01-24T20:07:43.238Z,2.47
2023-01-24T20:10:12.588Z,2.50
2023-01-24T20:12:41.578Z,2.61
2023-01-24T20:15:10.516Z,2.25
2023-01-24T20:17:38.174Z,2.10
2023-01-24T20:20:06.792Z,1.90
2023-01-24T20:22:34.498Z,1.89
2023-01-24T20:25:13.683Z,2.18
2023-01-24T20:27:46.411Z,2.36
2023-01-24T20:30:14.908Z,2.28
2023-01-24T20:32:43.391Z,2.24
2023-01-24T20:35:11.534Z,2.06
2023-01-24T20:37:39.311Z,2.18
2023-01-24T20:40:10.173Z,2.40
2023-01-24T20:42:41.866Z,2.41
2023-01-24T20:45:10.865Z,2.56
2023-01-24T20:47:39.136Z,2.50
2023-01-24T20:50:07.945Z,2.24
2023-01-24T20:52:35.653Z,2.05
2023-01-24T20:55:03.541Z,2.09
2023-01-24T20:57:32.631Z,2.14
2023-01-24T21:00:00.349Z,2.00
2023-01-24T21:02:28.656Z,1.99
2023-01-24T21:04:56.404Z,1.66
2023-01-24T21:07:24.113Z,1.98
2023-01-24T21:09:51.850Z,1.83
2023-01-24T21:12:19.502Z,1.81
2023-01-24T21:14:48.957Z,2.04
2023-01-24T21:17:19.657Z,1.74
2023-01-24T21:19:48.460Z,1.91
2023-01-24T21:22:16.091Z,1.95
2023-01-24T21:24:43.691Z,2.03
2023-01-24T21:27:11.333Z,1.98
2023-01-24T21:29:38.977Z,2.16
2023-01-24T21:32:08.195Z,1.77
2023-01-24T21:34:35.991Z,2.12
2023-01-24T21:37:03.572Z,1.78
2023-01-24T21:39:31.213Z,1.71
2023-01-24T21:42:00.394Z,1.80
2023-01-24T21:44:31.279Z,2.38
2023-01-24T21:46:59.132Z,1.98
2023-01-24T21:49:28.110Z,1.94
2023-01-24T21:51:59.628Z,1.93
2023-01-24T21:54:28.867Z,2.09
2023-01-24T21:57:29.611Z,2.30
2023-01-24T21:59:59.023Z,2.30
2023-01-24T22:02:28.126Z,1.99
2023-01-24T22:04:57.257Z,1.83
2023-01-24T22:07:26.586Z,2.10
2023-01-24T22:09:55.618Z,1.98
2023-01-24T22:12:23.464Z,1.99
2023-01-24T22:14:51.839Z,2.05
2023-01-24T22:17:21.342Z,1.93
2023-01-24T22:19:51.299Z,1.99
2023-01-24T22:22:46.042Z,2.14
2023-01-24T22:25:31.695Z,2.34
2023-01-24T22:27:59.803Z,2.02
2023-01-24T22:30:28.357Z,1.90
2023-01-24T22:32:56.864Z,1.64
2023-01-24T22:35:27.077Z,1.74
2023-01-24T22:37:58.165Z,2.01
2023-01-24T22:40:27.665Z,2.11
2023-01-24T22:42:57.790Z,2.07
2023-01-24T22:45:25.855Z,1.86
2023-01-24T22:47:53.648Z,2.05
2023-01-24T22:50:21.435Z,1.98
2023-01-24T22:52:50.085Z,2.30
2023-01-24T22:55:19.709Z,2.09
2023-01-24T22:57:47.592Z,1.72
2023-01-24T23:00:16.516Z,1.70
2023-01-24T23:02:44.108Z,1.97
2023-01-24T23:05:12.314Z,1.93
2023-01-24T23:07:40.207Z,1.83
2023-01-24T23:10:08.620Z,2.28
2023-01-24T23:13:06.496Z,2.15
2023-01-24T23:15:51.450Z,2.31
2023-01-24T23:18:43.532Z,2.24
2023-01-24T23:21:31.375Z,1.98
2023-01-24T23:23:59.598Z,2.13
2023-01-24T23:26:27.740Z,2.23
2023-01-24T23:29:07.278Z,2.03
2023-01-24T23:31:35.152Z,2.26
2023-01-24T23:34:03.410Z,2.17
2023-01-24T23:36:33.202Z,2.22
2023-01-24T23:39:00.860Z,2.02
2023-01-24T23:41:28.463Z,2.48
2023-01-24T23:43:56.070Z,2.13
2023-01-24T23:46:25.049Z,2.13
2023-01-24T23:48:54.890Z,1.75
2023-01-24T23:51:22.966Z,1.80
2023-01-24T23:53:50.890Z,1.92
2023-01-24T23:56:18.575Z,2.08
2023-01-24T23:58:46.140Z,1.86
